KROW/ROW METAR and TAF weather

Enter ICAO airport designator
Station Type Date Time Source
KROW METAR 2022/01/26 13:51 UTC NOAA

KROW 261351Z 11005KT 10SM OVC022 M01/M08 A3025 RMK AO2 SLP236 T10111078


Station Type Date Time Source
KROW Decoded METAR 2022/01/26 13:51 UTC NOAA

ROSWELL INDUSTRIAL AIR CENTR, NM, United States (KROW) 33-18N 104-32W 1112M
Jan 26, 2022 - 08:51 AM EST / 2022.01.26 1351 UTC
Wind: from the ESE (110 degrees) at 6 MPH (5 KT):0
Visibility: 10 mile(s):0
Sky conditions: overcast
Temperature: 30.0 F (-1.1 C)
Windchill: 23 F (-5 C):1
Dew Point: 18.0 F (-7.8 C)
Relative Humidity: 60%
Pressure (altimeter): 30.25 in. Hg (1024 hPa)
ob: KROW 261351Z 11005KT 10SM OVC022 M01/M08 A3025 RMK AO2 SLP236 T10111078
cycle: 14

Station Type Date Time Source
KROW TAF 2022/01/26 12:36 UTC NOAA

TAF KROW 261133Z 2612/2712 06010KT P6SM OVC035
TEMPO 2612/2615 OVC025
FM261500 07005KT P6SM OVC025
FM261900 VRB06KT P6SM BKN040
FM262200 17007KT P6SM FEW100
FM270300 VRB05KT P6SM SKC

Example: see airport list